sensor_id;sensor_type;location;lat;lon;timestamp;temperature;humidity
10512;DHT22;5304;48.604;2.096;2023-06-14T00:00:45;16.70;99.90
10512;DHT22;5304;48.604;2.096;2023-06-14T00:03:30;16.60;99.90
10512;DHT22;5304;48.604;2.096;2023-06-14T00:06:16;16.60;99.90
10512;DHT22;5304;48.604;2.096;2023-06-14T00:09:01;16.50;99.90
10512;DHT22;5304;48.604;2.096;2023-06-14T00:11:46;16.50;99.90
10512;DHT22;5304;48.604;2.096;2023-06-14T00:14:30;16.40;99.90
10512;DHT22;5304;48.604;2.096;2023-06-14T00:17:15;16.40;99.90
10512;DHT22;5304;48.604;2.096;2023-06-14T00:20:03;16.40;99.90
10512;DHT22;5304;48.604;2.096;2023-06-14T00:22:50;16.30;99.90
10512;DHT22;5304;48.604;2.096;2023-06-14T00:25:36;16.30;99.90
10512;DHT22;5304;48.604;2.096;2023-06-14T00:28:20;16.20;99.90
10512;DHT22;5304;48.604;2.096;2023-06-14T00:31:05;16.20;99.90
10512;DHT22;5304;48.604;2.096;2023-06-14T00:33:49;16.10;99.90
10512;DHT22;5304;48.604;2.096;2023-06-14T00:36:34;16.20;99.90
10512;DHT22;5304;48.604;2.096;2023-06-14T00:39:18;16.10;99.90
10512;DHT22;5304;48.604;2.096;2023-06-14T00:42:03;16.00;99.90
10512;DHT22;5304;48.604;2.096;2023-06-14T00:44:49;16.00;99.90
10512;DHT22;5304;48.604;2.096;2023-06-14T00:47:35;16.00;99.90
10512;DHT22;5304;48.604;2.096;2023-06-14T00:50:22;15.90;99.90
10512;DHT22;5304;48.604;2.096;2023-06-14T00:53:07;15.90;99.90
10512;DHT22;5304;48.604;2.096;2023-06-14T00:55:51;15.90;99.90
10512;DHT22;5304;48.604;2.096;2023-06-14T00:58:36;15.80;99.90
10512;DHT22;5304;48.604;2.096;2023-06-14T01:01:20;15.70;99.90
10512;DHT22;5304;48.604;2.096;2023-06-14T01:04:05;15.70;99.90
10512;DHT22;5304;48.604;2.096;2023-06-14T01:07:10;15.60;99.90
10512;DHT22;5304;48.604;2.096;2023-06-14T01:15:55;15.50;99.90
10512;DHT22;5304;48.604;2.096;2023-06-14T01:18:40;15.50;99.90
10512;DHT22;5304;48.604;2.096;2023-06-14T01:21:31;15.50;99.90
10512;DHT22;5304;48.604;2.096;2023-06-14T01:24:21;15.50;99.90
10512;DHT22;5304;48.604;2.096;2023-06-14T01:27:09;15.40;99.90
10512;DHT22;5304;48.604;2.096;2023-06-14T01:29:54;15.40;99.90
10512;DHT22;5304;48.604;2.096;2023-06-14T01:32:40;15.40;99.90
10512;DHT22;5304;48.604;2.096;2023-06-14T01:35:25;15.30;99.90
10512;DHT22;5304;48.604;2.096;2023-06-14T01:38:10;15.30;99.90
10512;DHT22;5304;48.604;2.096;2023-06-14T01:40:56;15.20;99.90
10512;DHT22;5304;48.604;2.096;2023-06-14T01:43:43;15.20;99.90
10512;DHT22;5304;48.604;2.096;2023-06-14T01:46:27;15.40;99.90
10512;DHT22;5304;48.604;2.096;2023-06-14T01:49:12;15.50;99.90
10512;DHT22;5304;48.604;2.096;2023-06-14T01:51:56;15.60;99.90
10512;DHT22;5304;48.604;2.096;2023-06-14T01:54:42;15.40;99.90
10512;DHT22;5304;48.604;2.096;2023-06-14T01:57:27;15.30;99.90
10512;DHT22;5304;48.604;2.096;2023-06-14T02:00:12;15.20;99.90
10512;DHT22;5304;48.604;2.096;2023-06-14T02:02:56;15.10;99.90
10512;DHT22;5304;48.604;2.096;2023-06-14T02:05:41;15.10;99.90
10512;DHT22;5304;48.604;2.096;2023-06-14T02:08:25;15.10;99.90
10512;DHT22;5304;48.604;2.096;2023-06-14T02:11:10;15.00;99.90
10512;DHT22;5304;48.604;2.096;2023-06-14T02:13:55;14.80;99.90
10512;DHT22;5304;48.604;2.096;2023-06-14T02:16:40;14.80;99.90
10512;DHT22;5304;48.604;2.096;2023-06-14T02:19:24;14.70;99.90
10512;DHT22;5304;48.604;2.096;2023-06-14T02:22:09;14.70;99.90
10512;DHT22;5304;48.604;2.096;2023-06-14T02:24:53;14.70;99.90
10512;DHT22;5304;48.604;2.096;2023-06-14T02:27:38;14.70;99.90
10512;DHT22;5304;48.604;2.096;2023-06-14T02:30:22;14.60;99.90
10512;DHT22;5304;48.604;2.096;2023-06-14T02:33:07;14.60;99.90
10512;DHT22;5304;48.604;2.096;2023-06-14T02:35:52;14.50;99.90
10512;DHT22;5304;48.604;2.096;2023-06-14T02:38:37;14.40;99.90
10512;DHT22;5304;48.604;2.096;2023-06-14T02:41:21;14.40;99.90
10512;DHT22;5304;48.604;2.096;2023-06-14T02:44:06;14.40;99.90
10512;DHT22;5304;48.604;2.096;2023-06-14T02:46:50;14.40;99.90
10512;DHT22;5304;48.604;2.096;2023-06-14T02:49:35;14.40;99.90
10512;DHT22;5304;48.604;2.096;2023-06-14T02:52:19;14.40;99.90
10512;DHT22;5304;48.604;2.096;2023-06-14T02:55:05;14.40;99.90
10512;DHT22;5304;48.604;2.096;2023-06-14T02:57:50;14.30;99.90
10512;DHT22;5304;48.604;2.096;2023-06-14T03:00:34;14.30;99.90
10512;DHT22;5304;48.604;2.096;2023-06-14T03:03:20;14.30;99.90
10512;DHT22;5304;48.604;2.096;2023-06-14T03:06:05;14.30;99.90
10512;DHT22;5304;48.604;2.096;2023-06-14T03:08:50;14.30;99.90
10512;DHT22;5304;48.604;2.096;2023-06-14T03:11:35;14.30;99.90
10512;DHT22;5304;48.604;2.096;2023-06-14T03:14:20;14.20;99.90
10512;DHT22;5304;48.604;2.096;2023-06-14T03:17:05;14.20;99.90
10512;DHT22;5304;48.604;2.096;2023-06-14T03:19:49;14.20;99.90
10512;DHT22;5304;48.604;2.096;2023-06-14T03:22:34;14.10;99.90
10512;DHT22;5304;48.604;2.096;2023-06-14T03:25:18;14.10;99.90
10512;DHT22;5304;48.604;2.096;2023-06-14T03:28:03;14.10;99.90
10512;DHT22;5304;48.604;2.096;2023-06-14T03:30:47;14.10;99.90
10512;DHT22;5304;48.604;2.096;2023-06-14T03:33:32;14.00;99.90
10512;DHT22;5304;48.604;2.096;2023-06-14T03:36:16;14.10;99.90
10512;DHT22;5304;48.604;2.096;2023-06-14T03:39:01;14.20;99.90
10512;DHT22;5304;48.604;2.096;2023-06-14T03:41:46;14.10;99.90
10512;DHT22;5304;48.604;2.096;2023-06-14T03:44:30;14.10;99.90
10512;DHT22;5304;48.604;2.096;2023-06-14T03:47:15;14.00;99.90
10512;DHT22;5304;48.604;2.096;2023-06-14T03:50:00;14.00;99.90
10512;DHT22;5304;48.604;2.096;2023-06-14T03:52:47;14.00;99.90
10512;DHT22;5304;48.604;2.096;2023-06-14T03:55:32;13.90;99.90
10512;DHT22;5304;48.604;2.096;2023-06-14T03:58:17;13.80;99.90
10512;DHT22;5304;48.604;2.096;2023-06-14T04:01:02;13.70;99.90
10512;DHT22;5304;48.604;2.096;2023-06-14T04:03:46;13.70;99.90
10512;DHT22;5304;48.604;2.096;2023-06-14T04:06:31;13.60;99.90
10512;DHT22;5304;48.604;2.096;2023-06-14T04:09:18;13.70;99.90
10512;DHT22;5304;48.604;2.096;2023-06-14T04:12:03;13.60;99.90
10512;DHT22;5304;48.604;2.096;2023-06-14T04:14:48;13.60;99.90
10512;DHT22;5304;48.604;2.096;2023-06-14T04:17:32;13.60;99.90
10512;DHT22;5304;48.604;2.096;2023-06-14T04:20:17;13.60;99.90
10512;DHT22;5304;48.604;2.096;2023-06-14T04:23:19;13.60;99.90
10512;DHT22;5304;48.604;2.096;2023-06-14T04:26:03;13.60;99.90
10512;DHT22;5304;48.604;2.096;2023-06-14T04:28:48;13.70;99.90
10512;DHT22;5304;48.604;2.096;2023-06-14T04:31:33;13.90;99.90
10512;DHT22;5304;48.604;2.096;2023-06-14T04:34:17;13.90;99.90
10512;DHT22;5304;48.604;2.096;2023-06-14T04:37:02;13.90;99.90
10512;DHT22;5304;48.604;2.096;2023-06-14T04:39:47;13.90;99.90
10512;DHT22;5304;48.604;2.096;2023-06-14T04:42:31;14.00;99.90
10512;DHT22;5304;48.604;2.096;2023-06-14T04:45:16;14.00;99.90
10512;DHT22;5304;48.604;2.096;2023-06-14T04:48:01;14.10;99.90
10512;DHT22;5304;48.604;2.096;2023-06-14T04:50:46;14.10;99.90
10512;DHT22;5304;48.604;2.096;2023-06-14T04:53:30;14.20;99.90
10512;DHT22;5304;48.604;2.096;2023-06-14T04:56:15;14.20;99.90
10512;DHT22;5304;48.604;2.096;2023-06-14T04:59:01;14.30;99.90
10512;DHT22;5304;48.604;2.096;2023-06-14T05:01:45;14.30;99.90
10512;DHT22;5304;48.604;2.096;2023-06-14T05:04:32;14.40;99.90
10512;DHT22;5304;48.604;2.096;2023-06-14T05:07:17;14.40;99.90
10512;DHT22;5304;48.604;2.096;2023-06-14T05:10:01;14.50;99.90
10512;DHT22;5304;48.604;2.096;2023-06-14T05:12:45;14.50;99.90
10512;DHT22;5304;48.604;2.096;2023-06-14T05:15:32;14.60;99.90
10512;DHT22;5304;48.604;2.096;2023-06-14T05:18:16;14.70;99.90
10512;DHT22;5304;48.604;2.096;2023-06-14T05:21:00;14.80;99.90
10512;DHT22;5304;48.604;2.096;2023-06-14T05:23:45;14.80;99.90
10512;DHT22;5304;48.604;2.096;2023-06-14T05:26:30;14.90;99.90
10512;DHT22;5304;48.604;2.096;2023-06-14T05:29:14;15.00;99.90
10512;DHT22;5304;48.604;2.096;2023-06-14T05:31:59;15.10;99.90
10512;DHT22;5304;48.604;2.096;2023-06-14T05:34:44;15.20;99.90
10512;DHT22;5304;48.604;2.096;2023-06-14T05:37:28;15.30;99.90
10512;DHT22;5304;48.604;2.096;2023-06-14T05:40:13;15.40;99.90
10512;DHT22;5304;48.604;2.096;2023-06-14T05:42:57;15.60;99.90
10512;DHT22;5304;48.604;2.096;2023-06-14T05:45:42;15.70;99.90
10512;DHT22;5304;48.604;2.096;2023-06-14T05:48:26;15.90;99.90
10512;DHT22;5304;48.604;2.096;2023-06-14T05:51:11;16.00;99.90
10512;DHT22;5304;48.604;2.096;2023-06-14T05:53:55;16.20;99.90
10512;DHT22;5304;48.604;2.096;2023-06-14T05:56:40;16.30;99.90
10512;DHT22;5304;48.604;2.096;2023-06-14T05:59:25;16.50;99.90
10512;DHT22;5304;48.604;2.096;2023-06-14T06:02:09;16.60;99.90
10512;DHT22;5304;48.604;2.096;2023-06-14T06:04:53;16.80;99.90
10512;DHT22;5304;48.604;2.096;2023-06-14T06:07:38;17.00;99.90
10512;DHT22;5304;48.604;2.096;2023-06-14T06:10:24;17.30;99.90
10512;DHT22;5304;48.604;2.096;2023-06-14T06:13:08;17.80;99.90
10512;DHT22;5304;48.604;2.096;2023-06-14T06:15:53;18.40;99.90
10512;DHT22;5304;48.604;2.096;2023-06-14T06:18:38;18.70;99.90
10512;DHT22;5304;48.604;2.096;2023-06-14T06:21:22;18.80;99.90
10512;DHT22;5304;48.604;2.096;2023-06-14T06:24:07;18.90;99.90
10512;DHT22;5304;48.604;2.096;2023-06-14T06:26:51;18.90;99.90
10512;DHT22;5304;48.604;2.096;2023-06-14T06:29:36;19.00;99.90
10512;DHT22;5304;48.604;2.096;2023-06-14T06:32:21;19.20;99.90
10512;DHT22;5304;48.604;2.096;2023-06-14T06:35:06;19.40;99.90
10512;DHT22;5304;48.604;2.096;2023-06-14T06:37:52;19.70;99.90
10512;DHT22;5304;48.604;2.096;2023-06-14T06:40:37;19.80;99.90
10512;DHT22;5304;48.604;2.096;2023-06-14T06:43:21;19.90;99.90
10512;DHT22;5304;48.604;2.096;2023-06-14T06:46:06;20.10;99.90
10512;DHT22;5304;48.604;2.096;2023-06-14T06:48:51;20.30;99.90
10512;DHT22;5304;48.604;2.096;2023-06-14T06:51:35;20.70;99.90
10512;DHT22;5304;48.604;2.096;2023-06-14T06:54:23;21.00;99.90
10512;DHT22;5304;48.604;2.096;2023-06-14T06:57:08;21.40;99.90
10512;DHT22;5304;48.604;2.096;2023-06-14T06:59:52;21.70;99.90
10512;DHT22;5304;48.604;2.096;2023-06-14T07:02:37;21.90;99.90
10512;DHT22;5304;48.604;2.096;2023-06-14T07:05:21;22.20;99.90
10512;DHT22;5304;48.604;2.096;2023-06-14T07:08:06;22.60;99.90
10512;DHT22;5304;48.604;2.096;2023-06-14T07:10:50;22.90;99.90
10512;DHT22;5304;48.604;2.096;2023-06-14T07:13:34;23.10;99.90
10512;DHT22;5304;48.604;2.096;2023-06-14T07:16:19;23.40;99.90
10512;DHT22;5304;48.604;2.096;2023-06-14T07:19:04;23.80;99.90
10512;DHT22;5304;48.604;2.096;2023-06-14T07:21:49;24.40;99.90
10512;DHT22;5304;48.604;2.096;2023-06-14T07:24:33;24.90;99.90
10512;DHT22;5304;48.604;2.096;2023-06-14T07:27:20;25.00;99.90
10512;DHT22;5304;48.604;2.096;2023-06-14T07:30:04;25.10;99.90
10512;DHT22;5304;48.604;2.096;2023-06-14T07:32:49;25.40;99.90
10512;DHT22;5304;48.604;2.096;2023-06-14T07:35:34;26.00;99.90
10512;DHT22;5304;48.604;2.096;2023-06-14T07:38:19;26.30;99.90
10512;DHT22;5304;48.604;2.096;2023-06-14T07:41:03;26.20;99.90
10512;DHT22;5304;48.604;2.096;2023-06-14T07:43:47;26.20;99.90
10512;DHT22;5304;48.604;2.096;2023-06-14T07:46:32;26.00;99.90
10512;DHT22;5304;48.604;2.096;2023-06-14T07:49:18;25.80;99.90
10512;DHT22;5304;48.604;2.096;2023-06-14T07:52:03;26.00;99.90
10512;DHT22;5304;48.604;2.096;2023-06-14T07:54:49;26.70;99.90
10512;DHT22;5304;48.604;2.096;2023-06-14T07:57:33;27.90;99.90
10512;DHT22;5304;48.604;2.096;2023-06-14T08:00:18;29.30;99.90
10512;DHT22;5304;48.604;2.096;2023-06-14T08:03:03;30.30;99.90
10512;DHT22;5304;48.604;2.096;2023-06-14T08:05:48;31.40;99.90
10512;DHT22;5304;48.604;2.096;2023-06-14T08:08:32;32.40;99.90
10512;DHT22;5304;48.604;2.096;2023-06-14T08:11:17;32.90;99.50
10512;DHT22;5304;48.604;2.096;2023-06-14T08:14:01;33.50;98.30
10512;DHT22;5304;48.604;2.096;2023-06-14T08:16:45;32.90;97.20
10512;DHT22;5304;48.604;2.096;2023-06-14T08:19:30;33.10;98.60
10512;DHT22;5304;48.604;2.096;2023-06-14T08:22:15;33.10;97.60
10512;DHT22;5304;48.604;2.096;2023-06-14T08:25:00;33.00;96.90
10512;DHT22;5304;48.604;2.096;2023-06-14T08:27:45;33.10;96.20
10512;DHT22;5304;48.604;2.096;2023-06-14T08:30:29;33.10;95.10
10512;DHT22;5304;48.604;2.096;2023-06-14T08:33:14;33.00;95.40
10512;DHT22;5304;48.604;2.096;2023-06-14T08:35:58;32.00;95.50
10512;DHT22;5304;48.604;2.096;2023-06-14T08:38:42;31.70;95.90
10512;DHT22;5304;48.604;2.096;2023-06-14T08:41:28;31.30;96.70
10512;DHT22;5304;48.604;2.096;2023-06-14T08:44:13;30.80;95.20
10512;DHT22;5304;48.604;2.096;2023-06-14T08:46:59;30.50;96.00
10512;DHT22;5304;48.604;2.096;2023-06-14T08:49:46;30.20;96.40
10512;DHT22;5304;48.604;2.096;2023-06-14T08:52:34;30.00;95.90
10512;DHT22;5304;48.604;2.096;2023-06-14T08:55:24;29.80;94.90
10512;DHT22;5304;48.604;2.096;2023-06-14T08:58:11;29.50;93.80
10512;DHT22;5304;48.604;2.096;2023-06-14T09:01:02;29.50;93.80
10512;DHT22;5304;48.604;2.096;2023-06-14T09:03:48;29.50;94.10
10512;DHT22;5304;48.604;2.096;2023-06-14T09:06:32;29.70;95.10
10512;DHT22;5304;48.604;2.096;2023-06-14T09:09:17;29.70;94.50
10512;DHT22;5304;48.604;2.096;2023-06-14T09:12:01;29.50;91.40
10512;DHT22;5304;48.604;2.096;2023-06-14T09:14:46;29.40;91.70
10512;DHT22;5304;48.604;2.096;2023-06-14T09:17:32;29.50;92.90
10512;DHT22;5304;48.604;2.096;2023-06-14T09:20:16;29.40;91.90
10512;DHT22;5304;48.604;2.096;2023-06-14T09:23:04;29.60;91.90
10512;DHT22;5304;48.604;2.096;2023-06-14T09:25:50;29.40;90.70
10512;DHT22;5304;48.604;2.096;2023-06-14T09:28:34;29.60;91.70
10512;DHT22;5304;48.604;2.096;2023-06-14T09:31:20;29.70;90.10
10512;DHT22;5304;48.604;2.096;2023-06-14T09:34:05;29.70;90.50
10512;DHT22;5304;48.604;2.096;2023-06-14T09:36:49;29.70;90.60
10512;DHT22;5304;48.604;2.096;2023-06-14T09:39:34;29.80;90.90
10512;DHT22;5304;48.604;2.096;2023-06-14T09:42:19;30.20;91.00
10512;DHT22;5304;48.604;2.096;2023-06-14T09:45:04;30.40;89.20
10512;DHT22;5304;48.604;2.096;2023-06-14T09:47:49;30.50;87.20
10512;DHT22;5304;48.604;2.096;2023-06-14T09:50:34;30.40;87.50
10512;DHT22;5304;48.604;2.096;2023-06-14T09:53:21;30.50;89.60
10512;DHT22;5304;48.604;2.096;2023-06-14T09:56:07;30.80;88.70
10512;DHT22;5304;48.604;2.096;2023-06-14T09:58:55;31.00;88.80
10512;DHT22;5304;48.604;2.096;2023-06-14T10:01:43;30.90;88.90
10512;DHT22;5304;48.604;2.096;2023-06-14T10:04:30;30.80;87.00
10512;DHT22;5304;48.604;2.096;2023-06-14T10:07:18;30.70;86.90
10512;DHT22;5304;48.604;2.096;2023-06-14T10:10:04;30.90;87.60
10512;DHT22;5304;48.604;2.096;2023-06-14T10:12:49;30.70;87.70
10512;DHT22;5304;48.604;2.096;2023-06-14T10:18:49;30.70;84.20
10512;DHT22;5304;48.604;2.096;2023-06-14T10:22:01;30.40;85.50
10512;DHT22;5304;48.604;2.096;2023-06-14T10:24:47;30.50;84.00
10512;DHT22;5304;48.604;2.096;2023-06-14T10:27:32;30.60;85.80
10512;DHT22;5304;48.604;2.096;2023-06-14T10:30:16;30.60;84.70
10512;DHT22;5304;48.604;2.096;2023-06-14T10:33:07;30.60;84.80
10512;DHT22;5304;48.604;2.096;2023-06-14T10:36:07;30.80;84.50
10512;DHT22;5304;48.604;2.096;2023-06-14T10:39:15;30.80;83.10
10512;DHT22;5304;48.604;2.096;2023-06-14T10:42:02;30.70;84.00
10512;DHT22;5304;48.604;2.096;2023-06-14T10:44:55;30.60;82.70
10512;DHT22;5304;48.604;2.096;2023-06-14T10:47:39;30.90;82.80
10512;DHT22;5304;48.604;2.096;2023-06-14T10:50:30;31.00;82.00
10512;DHT22;5304;48.604;2.096;2023-06-14T10:53:23;31.10;83.50
10512;DHT22;5304;48.604;2.096;2023-06-14T10:56:08;31.00;82.10
10512;DHT22;5304;48.604;2.096;2023-06-14T10:58:56;31.00;84.10
10512;DHT22;5304;48.604;2.096;2023-06-14T11:04:53;31.70;81.50
10512;DHT22;5304;48.604;2.096;2023-06-14T11:11:00;32.10;80.20
10512;DHT22;5304;48.604;2.096;2023-06-14T11:13:45;32.10;81.40
10512;DHT22;5304;48.604;2.096;2023-06-14T11:16:30;32.30;79.30
10512;DHT22;5304;48.604;2.096;2023-06-14T11:19:17;32.10;79.60
10512;DHT22;5304;48.604;2.096;2023-06-14T11:22:01;31.70;79.50
10512;DHT22;5304;48.604;2.096;2023-06-14T11:24:46;31.70;79.90
10512;DHT22;5304;48.604;2.096;2023-06-14T11:27:32;31.90;79.40
10512;DHT22;5304;48.604;2.096;2023-06-14T11:30:17;31.70;80.40
10512;DHT22;5304;48.604;2.096;2023-06-14T11:33:02;31.90;78.30
10512;DHT22;5304;48.604;2.096;2023-06-14T11:35:46;32.10;77.70
10512;DHT22;5304;48.604;2.096;2023-06-14T11:38:35;32.00;77.50
10512;DHT22;5304;48.604;2.096;2023-06-14T11:41:20;31.80;76.70
10512;DHT22;5304;48.604;2.096;2023-06-14T11:44:09;31.80;78.00
10512;DHT22;5304;48.604;2.096;2023-06-14T11:46:53;32.10;78.50
10512;DHT22;5304;48.604;2.096;2023-06-14T11:49:38;31.90;75.80
10512;DHT22;5304;48.604;2.096;2023-06-14T11:52:23;31.70;75.20
10512;DHT22;5304;48.604;2.096;2023-06-14T11:55:08;31.40;74.30
10512;DHT22;5304;48.604;2.096;2023-06-14T11:57:55;31.30;77.10
10512;DHT22;5304;48.604;2.096;2023-06-14T12:00:40;31.40;76.20
10512;DHT22;5304;48.604;2.096;2023-06-14T12:03:27;31.30;76.00
10512;DHT22;5304;48.604;2.096;2023-06-14T12:06:12;31.40;75.80
10512;DHT22;5304;48.604;2.096;2023-06-14T12:08:56;31.30;76.50
10512;DHT22;5304;48.604;2.096;2023-06-14T12:11:41;31.50;77.70
10512;DHT22;5304;48.604;2.096;2023-06-14T12:14:30;31.50;75.10
10512;DHT22;5304;48.604;2.096;2023-06-14T12:17:17;31.40;77.20
10512;DHT22;5304;48.604;2.096;2023-06-14T12:20:20;31.10;75.90
10512;DHT22;5304;48.604;2.096;2023-06-14T12:23:06;31.10;77.40
10512;DHT22;5304;48.604;2.096;2023-06-14T12:25:50;31.10;76.90
10512;DHT22;5304;48.604;2.096;2023-06-14T12:28:35;31.30;77.60
10512;DHT22;5304;48.604;2.096;2023-06-14T12:31:20;31.50;80.00
10512;DHT22;5304;48.604;2.096;2023-06-14T12:34:04;31.80;80.70
10512;DHT22;5304;48.604;2.096;2023-06-14T12:36:50;31.90;78.00
10512;DHT22;5304;48.604;2.096;2023-06-14T12:39:35;31.50;76.80
10512;DHT22;5304;48.604;2.096;2023-06-14T12:42:19;31.20;77.80
10512;DHT22;5304;48.604;2.096;2023-06-14T12:45:04;31.10;79.70
10512;DHT22;5304;48.604;2.096;2023-06-14T12:47:49;31.40;77.90
10512;DHT22;5304;48.604;2.096;2023-06-14T12:50:34;31.40;76.50
10512;DHT22;5304;48.604;2.096;2023-06-14T12:53:18;31.40;79.00
10512;DHT22;5304;48.604;2.096;2023-06-14T12:56:02;31.60;79.80
10512;DHT22;5304;48.604;2.096;2023-06-14T12:58:47;31.70;77.60
10512;DHT22;5304;48.604;2.096;2023-06-14T13:01:31;31.60;78.10
10512;DHT22;5304;48.604;2.096;2023-06-14T13:04:16;31.50;77.50
10512;DHT22;5304;48.604;2.096;2023-06-14T13:07:01;31.50;76.90
10512;DHT22;5304;48.604;2.096;2023-06-14T13:09:45;31.10;76.90
10512;DHT22;5304;48.604;2.096;2023-06-14T13:12:30;31.00;80.00
10512;DHT22;5304;48.604;2.096;2023-06-14T13:15:14;30.90;76.90
10512;DHT22;5304;48.604;2.096;2023-06-14T13:17:58;30.80;78.50
10512;DHT22;5304;48.604;2.096;2023-06-14T13:20:45;31.10;77.50
10512;DHT22;5304;48.604;2.096;2023-06-14T13:23:29;31.20;77.40
10512;DHT22;5304;48.604;2.096;2023-06-14T13:26:14;31.10;78.00
10512;DHT22;5304;48.604;2.096;2023-06-14T13:28:59;30.90;76.50
10512;DHT22;5304;48.604;2.096;2023-06-14T13:31:43;30.80;77.90
10512;DHT22;5304;48.604;2.096;2023-06-14T13:34:29;30.60;77.90
10512;DHT22;5304;48.604;2.096;2023-06-14T13:37:13;30.60;75.60
10512;DHT22;5304;48.604;2.096;2023-06-14T13:39:58;30.70;77.60
10512;DHT22;5304;48.604;2.096;2023-06-14T13:42:43;30.90;77.60
10512;DHT22;5304;48.604;2.096;2023-06-14T13:45:27;31.10;77.30
10512;DHT22;5304;48.604;2.096;2023-06-14T13:48:12;31.40;76.30
10512;DHT22;5304;48.604;2.096;2023-06-14T13:50:59;31.20;75.70
10512;DHT22;5304;48.604;2.096;2023-06-14T13:53:46;31.30;76.20
10512;DHT22;5304;48.604;2.096;2023-06-14T13:56:31;31.30;76.20
10512;DHT22;5304;48.604;2.096;2023-06-14T13:59:16;31.30;76.30
10512;DHT22;5304;48.604;2.096;2023-06-14T14:02:00;31.30;75.80
10512;DHT22;5304;48.604;2.096;2023-06-14T14:04:45;31.00;75.50
10512;DHT22;5304;48.604;2.096;2023-06-14T14:07:35;31.00;75.70
10512;DHT22;5304;48.604;2.096;2023-06-14T14:10:20;31.00;73.90
10512;DHT22;5304;48.604;2.096;2023-06-14T14:13:05;31.00;74.90
10512;DHT22;5304;48.604;2.096;2023-06-14T14:15:49;31.00;74.70
10512;DHT22;5304;48.604;2.096;2023-06-14T14:18:34;30.80;73.40
10512;DHT22;5304;48.604;2.096;2023-06-14T14:21:19;30.90;76.50
10512;DHT22;5304;48.604;2.096;2023-06-14T14:24:04;31.00;76.60
10512;DHT22;5304;48.604;2.096;2023-06-14T14:26:48;31.00;75.40
10512;DHT22;5304;48.604;2.096;2023-06-14T14:29:33;30.90;72.80
10512;DHT22;5304;48.604;2.096;2023-06-14T14:32:18;30.60;74.50
10512;DHT22;5304;48.604;2.096;2023-06-14T14:35:02;30.70;73.40
10512;DHT22;5304;48.604;2.096;2023-06-14T14:37:46;30.70;75.70
10512;DHT22;5304;48.604;2.096;2023-06-14T14:40:30;30.70;75.80
10512;DHT22;5304;48.604;2.096;2023-06-14T14:43:15;30.40;75.80
10512;DHT22;5304;48.604;2.096;2023-06-14T14:45:59;30.40;77.00
10512;DHT22;5304;48.604;2.096;2023-06-14T14:48:44;30.40;76.10
10512;DHT22;5304;48.604;2.096;2023-06-14T14:51:29;30.60;76.50
10512;DHT22;5304;48.604;2.096;2023-06-14T14:54:13;30.70;76.20
10512;DHT22;5304;48.604;2.096;2023-06-14T14:56:58;30.80;76.10
10512;DHT22;5304;48.604;2.096;2023-06-14T14:59:42;30.90;76.70
10512;DHT22;5304;48.604;2.096;2023-06-14T15:02:27;30.90;77.50
10512;DHT22;5304;48.604;2.096;2023-06-14T15:05:11;30.80;76.60
10512;DHT22;5304;48.604;2.096;2023-06-14T15:07:56;30.70;78.30
10512;DHT22;5304;48.604;2.096;2023-06-14T15:10:41;30.70;78.70
10512;DHT22;5304;48.604;2.096;2023-06-14T15:13:25;30.70;77.20
10512;DHT22;5304;48.604;2.096;2023-06-14T15:16:10;30.70;77.60
10512;DHT22;5304;48.604;2.096;2023-06-14T15:18:54;30.70;78.60
10512;DHT22;5304;48.604;2.096;2023-06-14T15:21:39;30.70;76.80
10512;DHT22;5304;48.604;2.096;2023-06-14T15:24:23;30.40;76.10
10512;DHT22;5304;48.604;2.096;2023-06-14T15:27:07;30.10;77.30
10512;DHT22;5304;48.604;2.096;2023-06-14T15:29:52;29.80;78.50
10512;DHT22;5304;48.604;2.096;2023-06-14T15:32:37;29.60;79.20
10512;DHT22;5304;48.604;2.096;2023-06-14T15:35:22;29.60;78.00
10512;DHT22;5304;48.604;2.096;2023-06-14T15:38:06;29.80;78.40
10512;DHT22;5304;48.604;2.096;2023-06-14T15:40:50;29.70;77.00
10512;DHT22;5304;48.604;2.096;2023-06-14T15:43:35;29.80;76.60
10512;DHT22;5304;48.604;2.096;2023-06-14T15:46:21;29.80;76.10
10512;DHT22;5304;48.604;2.096;2023-06-14T15:49:10;29.70;76.90
10512;DHT22;5304;48.604;2.096;2023-06-14T15:51:55;29.70;76.50
10512;DHT22;5304;48.604;2.096;2023-06-14T15:54:39;29.70;76.50
10512;DHT22;5304;48.604;2.096;2023-06-14T15:57:23;29.60;77.20
10512;DHT22;5304;48.604;2.096;2023-06-14T16:00:08;29.70;79.40
10512;DHT22;5304;48.604;2.096;2023-06-14T16:02:53;29.70;78.00
10512;DHT22;5304;48.604;2.096;2023-06-14T16:05:38;29.70;77.50
10512;DHT22;5304;48.604;2.096;2023-06-14T16:08:22;29.70;77.20
10512;DHT22;5304;48.604;2.096;2023-06-14T16:11:07;29.80;78.50
10512;DHT22;5304;48.604;2.096;2023-06-14T16:13:51;29.60;76.70
10512;DHT22;5304;48.604;2.096;2023-06-14T16:16:36;29.50;79.50
10512;DHT22;5304;48.604;2.096;2023-06-14T16:19:20;29.50;80.80
10512;DHT22;5304;48.604;2.096;2023-06-14T16:22:05;29.60;80.00
10512;DHT22;5304;48.604;2.096;2023-06-14T16:24:50;29.50;77.50
10512;DHT22;5304;48.604;2.096;2023-06-14T16:27:34;29.40;77.50
10512;DHT22;5304;48.604;2.096;2023-06-14T16:30:19;29.20;78.40
10512;DHT22;5304;48.604;2.096;2023-06-14T16:33:03;29.10;79.10
10512;DHT22;5304;48.604;2.096;2023-06-14T16:35:47;29.00;78.60
10512;DHT22;5304;48.604;2.096;2023-06-14T16:38:32;29.00;80.10
10512;DHT22;5304;48.604;2.096;2023-06-14T16:41:16;29.00;80.50
10512;DHT22;5304;48.604;2.096;2023-06-14T16:44:01;29.00;80.10
10512;DHT22;5304;48.604;2.096;2023-06-14T16:46:47;29.10;80.30
10512;DHT22;5304;48.604;2.096;2023-06-14T16:49:32;29.10;80.80
10512;DHT22;5304;48.604;2.096;2023-06-14T16:52:16;29.10;80.50
10512;DHT22;5304;48.604;2.096;2023-06-14T16:55:01;29.00;79.30
10512;DHT22;5304;48.604;2.096;2023-06-14T16:57:45;28.90;79.40
10512;DHT22;5304;48.604;2.096;2023-06-14T17:00:29;28.90;79.00
10512;DHT22;5304;48.604;2.096;2023-06-14T17:03:14;28.80;80.30
10512;DHT22;5304;48.604;2.096;2023-06-14T17:05:58;28.80;81.00
10512;DHT22;5304;48.604;2.096;2023-06-14T17:08:43;28.70;80.60
10512;DHT22;5304;48.604;2.096;2023-06-14T17:11:29;28.70;82.30
10512;DHT22;5304;48.604;2.096;2023-06-14T17:14:14;28.70;80.30
10512;DHT22;5304;48.604;2.096;2023-06-14T17:16:58;28.60;81.30
10512;DHT22;5304;48.604;2.096;2023-06-14T17:19:43;28.50;81.70
10512;DHT22;5304;48.604;2.096;2023-06-14T17:22:27;28.50;80.90
10512;DHT22;5304;48.604;2.096;2023-06-14T17:25:12;28.40;81.30
10512;DHT22;5304;48.604;2.096;2023-06-14T17:27:57;28.40;80.50
10512;DHT22;5304;48.604;2.096;2023-06-14T17:30:42;28.30;81.00
10512;DHT22;5304;48.604;2.096;2023-06-14T17:33:27;28.20;81.80
10512;DHT22;5304;48.604;2.096;2023-06-14T17:36:11;28.10;80.00
10512;DHT22;5304;48.604;2.096;2023-06-14T17:38:55;28.00;81.00
10512;DHT22;5304;48.604;2.096;2023-06-14T17:41:40;27.90;83.20
10512;DHT22;5304;48.604;2.096;2023-06-14T17:44:24;27.80;84.20
10512;DHT22;5304;48.604;2.096;2023-06-14T17:47:08;27.80;84.60
10512;DHT22;5304;48.604;2.096;2023-06-14T17:49:52;27.80;85.20
10512;DHT22;5304;48.604;2.096;2023-06-14T17:52:37;27.70;85.30
10512;DHT22;5304;48.604;2.096;2023-06-14T17:55:22;27.70;84.10